sensor_id;sensor_type;location;lat;lon;timestamp;noise_LAeq;noise_LA_min;noise_LA_max;noise_LA01;noise_LA95
49215;Laerm;45943;53.148;8.204;2024-03-06T00:02:07;46.32;41.66;55.45;;
49215;Laerm;45943;53.148;8.204;2024-03-06T00:04:33;48.74;40.06;66.05;;
49215;Laerm;45943;53.148;8.204;2024-03-06T00:06:59;47.26;38.65;64.03;;
49215;Laerm;45943;53.148;8.204;2024-03-06T00:09:26;42.23;38.81;53.11;;
49215;Laerm;45943;53.148;8.204;2024-03-06T00:11:55;41.94;37.92;45.29;;
49215;Laerm;45943;53.148;8.204;2024-03-06T00:14:22;42.04;39.27;44.67;;
49215;Laerm;45943;53.148;8.204;2024-03-06T00:16:48;43.86;37.92;57.60;;
49215;Laerm;45943;53.148;8.204;2024-03-06T00:19:18;41.94;38.65;55.11;;
49215;Laerm;45943;53.148;8.204;2024-03-06T00:21:44;41.59;38.48;44.91;;
49215;Laerm;45943;53.148;8.204;2024-03-06T00:24:14;42.14;38.81;52.99;;
49215;Laerm;45943;53.148;8.204;2024-03-06T00:26:44;43.34;39.68;63.33;;
49215;Laerm;45943;53.148;8.204;2024-03-06T00:29:11;42.38;39.12;56.11;;
49215;Laerm;45943;53.148;8.204;2024-03-06T00:31:42;42.64;39.41;44.68;;
49215;Laerm;45943;53.148;8.204;2024-03-06T00:34:08;42.75;39.81;44.63;;
49215;Laerm;45943;53.148;8.204;2024-03-06T00:36:35;41.71;38.65;48.67;;
49215;Laerm;45943;53.148;8.204;2024-03-06T00:39:01;42.42;37.51;45.67;;
49215;Laerm;45943;53.148;8.204;2024-03-06T00:41:29;58.52;40.41;73.89;;
49215;Laerm;45943;53.148;8.204;2024-03-06T00:43:55;42.50;39.41;44.59;;
49215;Laerm;45943;53.148;8.204;2024-03-06T00:46:21;41.34;38.30;46.40;;
49215;Laerm;45943;53.148;8.204;2024-03-06T00:48:47;41.15;37.72;43.25;;
49215;Laerm;45943;53.148;8.204;2024-03-06T00:51:13;44.73;37.72;61.55;;
49215;Laerm;45943;53.148;8.204;2024-03-06T00:53:39;41.03;37.72;44.91;;
49215;Laerm;45943;53.148;8.204;2024-03-06T00:56:05;41.24;36.54;47.29;;
49215;Laerm;45943;53.148;8.204;2024-03-06T00:58:31;42.68;39.41;45.47;;
49215;Laerm;45943;53.148;8.204;2024-03-06T01:00:57;43.10;40.06;51.09;;
49215;Laerm;45943;53.148;8.204;2024-03-06T01:03:24;42.82;39.55;45.47;;
49215;Laerm;45943;53.148;8.204;2024-03-06T01:05:51;43.16;40.30;49.08;;
49215;Laerm;45943;53.148;8.204;2024-03-06T01:08:19;42.98;39.81;47.17;;
49215;Laerm;45943;53.148;8.204;2024-03-06T01:10:45;46.99;39.68;63.57;;
49215;Laerm;45943;53.148;8.204;2024-03-06T01:13:11;42.72;38.48;44.79;;
49215;Laerm;45943;53.148;8.204;2024-03-06T01:15:38;43.48;39.81;56.71;;
49215;Laerm;45943;53.148;8.204;2024-03-06T01:18:04;53.52;41.22;69.45;;
49215;Laerm;45943;53.148;8.204;2024-03-06T01:20:30;42.90;39.94;44.87;;
49215;Laerm;45943;53.148;8.204;2024-03-06T01:22:56;42.58;39.27;45.14;;
49215;Laerm;45943;53.148;8.204;2024-03-06T01:25:22;42.69;39.94;45.43;;
49215;Laerm;45943;53.148;8.204;2024-03-06T01:27:48;42.42;39.27;44.63;;
49215;Laerm;45943;53.148;8.204;2024-03-06T01:30:14;42.50;39.41;45.14;;
49215;Laerm;45943;53.148;8.204;2024-03-06T01:32:41;42.68;39.27;44.71;;
49215;Laerm;45943;53.148;8.204;2024-03-06T01:35:07;43.04;39.47;44.95;;
49215;Laerm;45943;53.148;8.204;2024-03-06T01:37:33;43.29;40.18;45.18;;
49215;Laerm;45943;53.148;8.204;2024-03-06T01:39:59;43.28;40.30;48.41;;
49215;Laerm;45943;53.148;8.204;2024-03-06T01:42:25;43.19;39.81;45.57;;
49215;Laerm;45943;53.148;8.204;2024-03-06T01:44:51;43.34;39.12;46.43;;
49215;Laerm;45943;53.148;8.204;2024-03-06T01:47:17;41.76;37.29;44.87;;
49215;Laerm;45943;53.148;8.204;2024-03-06T01:49:43;43.57;38.30;45.74;;
49215;Laerm;45943;53.148;8.204;2024-03-06T01:52:11;43.21;39.41;45.74;;
49215;Laerm;45943;53.148;8.204;2024-03-06T01:54:39;43.60;38.48;46.90;;
49215;Laerm;45943;53.148;8.204;2024-03-06T01:57:06;43.01;37.92;45.47;;
49215;Laerm;45943;53.148;8.204;2024-03-06T01:59:33;43.33;39.27;45.80;;
49215;Laerm;45943;53.148;8.204;2024-03-06T02:02:00;43.23;39.68;48.75;;
49215;Laerm;45943;53.148;8.204;2024-03-06T02:04:27;43.03;39.55;45.43;;
49215;Laerm;45943;53.148;8.204;2024-03-06T02:06:54;42.49;39.41;47.55;;
49215;Laerm;45943;53.148;8.204;2024-03-06T02:09:20;52.19;37.29;64.73;;
49215;Laerm;45943;53.148;8.204;2024-03-06T02:11:46;41.15;37.51;43.99;;
49215;Laerm;45943;53.148;8.204;2024-03-06T02:14:12;41.54;38.30;46.57;;
49215;Laerm;45943;53.148;8.204;2024-03-06T02:16:38;42.88;38.48;55.35;;
49215;Laerm;45943;53.148;8.204;2024-03-06T02:19:07;45.93;37.72;63.68;;
49215;Laerm;45943;53.148;8.204;2024-03-06T02:21:34;61.14;40.30;71.95;;
49215;Laerm;45943;53.148;8.204;2024-03-06T02:24:00;41.55;38.30;45.11;;
49215;Laerm;45943;53.148;8.204;2024-03-06T02:26:26;42.13;37.92;45.50;;
49215;Laerm;45943;53.148;8.204;2024-03-06T02:28:54;40.85;37.05;43.36;;
49215;Laerm;45943;53.148;8.204;2024-03-06T02:31:20;41.57;37.72;45.18;;
49215;Laerm;45943;53.148;8.204;2024-03-06T02:33:48;41.60;37.92;44.59;;
49215;Laerm;45943;53.148;8.204;2024-03-06T02:36:15;43.53;37.72;60.82;;
49215;Laerm;45943;53.148;8.204;2024-03-06T02:38:43;47.31;37.72;61.11;;
49215;Laerm;45943;53.148;8.204;2024-03-06T02:41:10;41.07;37.51;43.53;;
49215;Laerm;45943;53.148;8.204;2024-03-06T02:43:37;44.84;38.12;60.31;;
49215;Laerm;45943;53.148;8.204;2024-03-06T02:46:03;41.13;36.80;47.73;;
49215;Laerm;45943;53.148;8.204;2024-03-06T02:48:30;40.82;37.29;42.95;;
49215;Laerm;45943;53.148;8.204;2024-03-06T02:50:56;48.95;37.72;65.44;;
49215;Laerm;45943;53.148;8.204;2024-03-06T02:53:23;40.91;37.37;49.30;;
49215;Laerm;45943;53.148;8.204;2024-03-06T02:55:49;41.09;37.51;50.74;;
49215;Laerm;45943;53.148;8.204;2024-03-06T02:58:15;40.99;38.12;42.95;;
49215;Laerm;45943;53.148;8.204;2024-03-06T03:00:44;41.06;38.12;47.92;;
49215;Laerm;45943;53.148;8.204;2024-03-06T03:03:10;40.90;37.29;43.13;;
49215;Laerm;45943;53.148;8.204;2024-03-06T03:05:40;40.96;37.51;46.46;;
49215;Laerm;45943;53.148;8.204;2024-03-06T03:08:06;49.58;38.12;69.16;;
49215;Laerm;45943;53.148;8.204;2024-03-06T03:10:32;41.21;37.51;43.74;;
49215;Laerm;45943;53.148;8.204;2024-03-06T03:13:00;41.34;38.12;44.14;;
49215;Laerm;45943;53.148;8.204;2024-03-06T03:15:26;40.89;37.51;43.48;;
49215;Laerm;45943;53.148;8.204;2024-03-06T03:17:52;40.87;37.29;44.91;;
49215;Laerm;45943;53.148;8.204;2024-03-06T03:20:18;42.79;37.92;48.53;;
49215;Laerm;45943;53.148;8.204;2024-03-06T03:22:44;44.81;37.51;60.58;;
49215;Laerm;45943;53.148;8.204;2024-03-06T03:25:11;41.46;37.92;49.33;;
49215;Laerm;45943;53.148;8.204;2024-03-06T03:27:38;41.11;37.92;43.69;;
49215;Laerm;45943;53.148;8.204;2024-03-06T03:30:09;41.13;36.80;43.42;;
49215;Laerm;45943;53.148;8.204;2024-03-06T03:32:36;41.55;38.30;50.38;;
49215;Laerm;45943;53.148;8.204;2024-03-06T03:35:06;41.06;36.94;45.18;;
49215;Laerm;45943;53.148;8.204;2024-03-06T03:37:33;41.03;38.12;44.41;;
49215;Laerm;45943;53.148;8.204;2024-03-06T03:39:59;41.20;37.92;51.87;;
49215;Laerm;45943;53.148;8.204;2024-03-06T03:42:25;41.24;37.51;55.13;;
49215;Laerm;45943;53.148;8.204;2024-03-06T03:44:51;41.54;37.72;45.14;;
49215;Laerm;45943;53.148;8.204;2024-03-06T03:47:17;41.31;38.30;44.63;;
49215;Laerm;45943;53.148;8.204;2024-03-06T03:49:43;41.34;38.30;43.79;;
49215;Laerm;45943;53.148;8.204;2024-03-06T03:52:09;41.58;38.30;44.14;;
49215;Laerm;45943;53.148;8.204;2024-03-06T03:54:35;41.45;37.72;44.54;;
49215;Laerm;45943;53.148;8.204;2024-03-06T03:57:01;46.97;38.47;63.54;;
49215;Laerm;45943;53.148;8.204;2024-03-06T03:59:27;41.62;38.48;44.87;;
49215;Laerm;45943;53.148;8.204;2024-03-06T04:01:53;41.39;37.92;44.04;;
49215;Laerm;45943;53.148;8.204;2024-03-06T04:04:19;42.26;38.97;44.67;;
49215;Laerm;45943;53.148;8.204;2024-03-06T04:06:45;61.38;39.95;72.70;;
49215;Laerm;45943;53.148;8.204;2024-03-06T04:09:11;42.10;38.12;44.28;;
49215;Laerm;45943;53.148;8.204;2024-03-06T04:11:37;42.05;38.97;44.59;;
49215;Laerm;45943;53.148;8.204;2024-03-06T04:14:04;42.05;38.81;43.94;;
49215;Laerm;45943;53.148;8.204;2024-03-06T04:16:32;41.83;38.65;44.32;;
49215;Laerm;45943;53.148;8.204;2024-03-06T04:18:58;41.64;38.97;46.75;;
49215;Laerm;45943;53.148;8.204;2024-03-06T04:21:24;51.81;39.12;66.10;;
49215;Laerm;45943;53.148;8.204;2024-03-06T04:23:50;41.60;37.92;45.87;;
49215;Laerm;45943;53.148;8.204;2024-03-06T04:26:16;49.85;38.97;67.10;;
49215;Laerm;45943;53.148;8.204;2024-03-06T04:28:43;41.86;38.30;45.25;;
49215;Laerm;45943;53.148;8.204;2024-03-06T04:31:10;50.61;38.97;68.22;;
49215;Laerm;45943;53.148;8.204;2024-03-06T04:33:36;50.52;39.55;64.64;;
49215;Laerm;45943;53.148;8.204;2024-03-06T04:36:03;42.51;40.06;49.40;;
49215;Laerm;45943;53.148;8.204;2024-03-06T04:38:31;44.07;40.18;60.25;;
49215;Laerm;45943;53.148;8.204;2024-03-06T04:40:57;50.87;40.18;66.25;;
49215;Laerm;45943;53.148;8.204;2024-03-06T04:43:24;48.19;40.06;62.69;;
49215;Laerm;45943;53.148;8.204;2024-03-06T04:45:50;47.25;39.94;59.81;;
49215;Laerm;45943;53.148;8.204;2024-03-06T04:48:16;45.60;40.41;57.00;;
49215;Laerm;45943;53.148;8.204;2024-03-06T04:50:42;50.36;39.94;64.84;;
49215;Laerm;45943;53.148;8.204;2024-03-06T04:53:08;47.90;40.52;62.33;;
49215;Laerm;45943;53.148;8.204;2024-03-06T04:55:34;44.17;40.18;54.89;;
49215;Laerm;45943;53.148;8.204;2024-03-06T04:58:03;49.41;40.83;70.31;;
49215;Laerm;45943;53.148;8.204;2024-03-06T05:00:30;48.70;40.52;64.24;;
49215;Laerm;45943;53.148;8.204;2024-03-06T05:02:56;52.95;40.93;69.36;;
49215;Laerm;45943;53.148;8.204;2024-03-06T05:05:22;50.40;40.83;67.61;;
49215;Laerm;45943;53.148;8.204;2024-03-06T05:07:48;55.00;42.21;70.03;;
49215;Laerm;45943;53.148;8.204;2024-03-06T05:10:15;56.62;48.02;72.81;;
49215;Laerm;45943;53.148;8.204;2024-03-06T05:12:44;59.02;42.82;74.93;;
49215;Laerm;45943;53.148;8.204;2024-03-06T05:15:10;51.71;41.66;67.98;;
49215;Laerm;45943;53.148;8.204;2024-03-06T05:17:36;52.92;40.52;65.96;;
49215;Laerm;45943;53.148;8.204;2024-03-06T05:20:03;51.34;40.63;65.37;;
49215;Laerm;45943;53.148;8.204;2024-03-06T05:22:32;56.07;41.13;72.17;;
49215;Laerm;45943;53.148;8.204;2024-03-06T05:24:58;52.18;41.13;66.78;;
49215;Laerm;45943;53.148;8.204;2024-03-06T05:27:24;50.20;41.49;62.77;;
49215;Laerm;45943;53.148;8.204;2024-03-06T05:29:51;50.96;41.74;64.34;;
49215;Laerm;45943;53.148;8.204;2024-03-06T05:32:17;52.34;41.40;70.36;;
49215;Laerm;45943;53.148;8.204;2024-03-06T05:34:43;50.22;41.40;63.72;;
49215;Laerm;45943;53.148;8.204;2024-03-06T05:37:09;49.78;41.66;63.40;;
49215;Laerm;45943;53.148;8.204;2024-03-06T05:39:35;53.38;42.21;68.53;;
49215;Laerm;45943;53.148;8.204;2024-03-06T05:42:03;53.31;41.31;67.74;;
49215;Laerm;45943;53.148;8.204;2024-03-06T05:44:30;51.68;41.22;65.14;;
49215;Laerm;45943;53.148;8.204;2024-03-06T05:47:02;53.89;42.21;65.31;;
49215;Laerm;45943;53.148;8.204;2024-03-06T05:49:28;51.03;41.40;66.42;;
49215;Laerm;45943;53.148;8.204;2024-03-06T05:51:55;53.64;41.98;65.24;;
49215;Laerm;45943;53.148;8.204;2024-03-06T05:54:21;53.90;41.90;67.99;;
49215;Laerm;45943;53.148;8.204;2024-03-06T05:56:48;51.12;41.98;64.60;;
49215;Laerm;45943;53.148;8.204;2024-03-06T05:59:18;51.63;41.74;67.99;;
49215;Laerm;45943;53.148;8.204;2024-03-06T06:01:44;55.84;42.28;70.24;;
49215;Laerm;45943;53.148;8.204;2024-03-06T06:04:13;51.77;41.98;65.82;;
49215;Laerm;45943;53.148;8.204;2024-03-06T06:06:39;54.07;42.01;64.59;;
49215;Laerm;45943;53.148;8.204;2024-03-06T06:09:06;56.37;43.36;65.94;;
49215;Laerm;45943;53.148;8.204;2024-03-06T06:11:33;52.98;42.49;64.00;;
49215;Laerm;45943;53.148;8.204;2024-03-06T06:13:59;52.47;42.28;68.53;;
49215;Laerm;45943;53.148;8.204;2024-03-06T06:16:25;55.80;42.76;67.35;;
49215;Laerm;45943;53.148;8.204;2024-03-06T06:18:51;61.08;43.36;84.32;;
49215;Laerm;45943;53.148;8.204;2024-03-06T06:21:18;54.62;42.06;67.15;;
49215;Laerm;45943;53.148;8.204;2024-03-06T06:23:44;56.31;42.89;70.48;;
49215;Laerm;45943;53.148;8.204;2024-03-06T06:26:10;53.78;42.13;67.76;;
49215;Laerm;45943;53.148;8.204;2024-03-06T06:28:37;53.24;42.90;67.46;;
49215;Laerm;45943;53.148;8.204;2024-03-06T06:31:04;56.68;42.56;72.37;;
49215;Laerm;45943;53.148;8.204;2024-03-06T06:33:30;55.95;42.66;72.53;;
49215;Laerm;45943;53.148;8.204;2024-03-06T06:35:56;52.46;43.01;65.66;;
49215;Laerm;45943;53.148;8.204;2024-03-06T06:38:22;58.39;43.01;75.85;;
49215;Laerm;45943;53.148;8.204;2024-03-06T06:40:48;53.39;42.28;66.94;;
49215;Laerm;45943;53.148;8.204;2024-03-06T06:43:14;56.54;42.69;68.44;;
49215;Laerm;45943;53.148;8.204;2024-03-06T06:45:41;53.92;42.95;68.71;;
49215;Laerm;45943;53.148;8.204;2024-03-06T06:48:07;55.31;42.69;65.69;;
49215;Laerm;45943;53.148;8.204;2024-03-06T06:50:35;53.80;42.89;65.71;;
49215;Laerm;45943;53.148;8.204;2024-03-06T06:53:01;56.67;43.89;67.70;;
49215;Laerm;45943;53.148;8.204;2024-03-06T06:55:27;56.21;46.29;66.95;;
49215;Laerm;45943;53.148;8.204;2024-03-06T06:57:53;54.84;43.79;70.23;;
49215;Laerm;45943;53.148;8.204;2024-03-06T07:00:20;53.52;44.91;67.84;;
49215;Laerm;45943;53.148;8.204;2024-03-06T07:02:47;56.78;44.71;68.32;;
49215;Laerm;45943;53.148;8.204;2024-03-06T07:05:13;56.87;44.14;69.85;;
49215;Laerm;45943;53.148;8.204;2024-03-06T07:07:40;53.48;45.14;65.06;;
49215;Laerm;45943;53.148;8.204;2024-03-06T07:10:06;56.55;44.87;67.01;;
49215;Laerm;45943;53.148;8.204;2024-03-06T07:12:33;55.70;44.54;67.92;;
49215;Laerm;45943;53.148;8.204;2024-03-06T07:14:59;54.68;44.46;67.62;;
49215;Laerm;45943;53.148;8.204;2024-03-06T07:17:25;57.07;44.64;74.77;;
49215;Laerm;45943;53.148;8.204;2024-03-06T07:19:51;53.63;44.54;68.82;;
49215;Laerm;45943;53.148;8.204;2024-03-06T07:22:21;54.16;44.95;65.79;;
49215;Laerm;45943;53.148;8.204;2024-03-06T07:24:48;53.76;43.58;65.98;;
49215;Laerm;45943;53.148;8.204;2024-03-06T07:27:14;54.26;43.89;64.62;;
49215;Laerm;45943;53.148;8.204;2024-03-06T07:29:40;52.86;41.49;67.93;;
49215;Laerm;45943;53.148;8.204;2024-03-06T07:32:06;55.77;42.89;67.24;;
49215;Laerm;45943;53.148;8.204;2024-03-06T07:34:32;54.17;42.82;65.39;;
49215;Laerm;45943;53.148;8.204;2024-03-06T07:36:59;51.07;42.42;65.06;;
49215;Laerm;45943;53.148;8.204;2024-03-06T07:39:26;59.33;42.56;74.31;;
49215;Laerm;45943;53.148;8.204;2024-03-06T07:41:52;55.56;42.21;68.70;;
49215;Laerm;45943;53.148;8.204;2024-03-06T07:44:18;51.19;42.42;63.92;;
49215;Laerm;45943;53.148;8.204;2024-03-06T07:46:46;53.78;41.82;65.45;;
49215;Laerm;45943;53.148;8.204;2024-03-06T07:49:12;52.81;42.13;66.62;;
49215;Laerm;45943;53.148;8.204;2024-03-06T07:51:38;54.15;42.89;65.52;;
49215;Laerm;45943;53.148;8.204;2024-03-06T07:54:06;52.96;43.31;63.52;;
49215;Laerm;45943;53.148;8.204;2024-03-06T07:56:33;54.64;41.49;70.52;;
49215;Laerm;45943;53.148;8.204;2024-03-06T07:59:00;55.95;41.74;76.06;;
49215;Laerm;45943;53.148;8.204;2024-03-06T08:01:26;53.71;42.21;70.28;;
49215;Laerm;45943;53.148;8.204;2024-03-06T08:03:54;56.26;42.76;68.22;;
49215;Laerm;45943;53.148;8.204;2024-03-06T08:06:21;53.08;41.56;68.97;;
49215;Laerm;45943;53.148;8.204;2024-03-06T08:08:47;57.60;41.58;74.40;;
49215;Laerm;45943;53.148;8.204;2024-03-06T08:11:13;54.87;41.31;65.65;;
49215;Laerm;45943;53.148;8.204;2024-03-06T08:13:40;52.95;41.82;67.29;;
49215;Laerm;45943;53.148;8.204;2024-03-06T08:16:06;53.62;42.06;64.23;;
49215;Laerm;45943;53.148;8.204;2024-03-06T08:18:33;54.90;41.58;64.70;;
49215;Laerm;45943;53.148;8.204;2024-03-06T08:21:01;53.92;41.22;66.72;;
49215;Laerm;45943;53.148;8.204;2024-03-06T08:23:27;52.09;41.13;67.10;;
49215;Laerm;45943;53.148;8.204;2024-03-06T08:25:53;53.86;41.90;64.40;;
49215;Laerm;45943;53.148;8.204;2024-03-06T08:28:19;65.09;41.31;90.01;;
49215;Laerm;45943;53.148;8.204;2024-03-06T08:30:45;55.99;41.90;73.92;;
49215;Laerm;45943;53.148;8.204;2024-03-06T08:33:11;56.56;41.40;69.63;;
49215;Laerm;45943;53.148;8.204;2024-03-06T08:35:38;51.81;41.40;64.49;;
49215;Laerm;45943;53.148;8.204;2024-03-06T08:38:04;54.04;41.58;68.41;;
49215;Laerm;45943;53.148;8.204;2024-03-06T08:40:30;54.87;41.82;67.23;;
49215;Laerm;45943;53.148;8.204;2024-03-06T08:42:56;56.40;42.69;70.20;;
49215;Laerm;45943;53.148;8.204;2024-03-06T08:45:22;64.70;44.99;85.60;;
49215;Laerm;45943;53.148;8.204;2024-03-06T08:47:49;53.82;42.89;72.74;;
49215;Laerm;45943;53.148;8.204;2024-03-06T08:50:15;49.37;41.13;63.87;;
49215;Laerm;45943;53.148;8.204;2024-03-06T08:52:42;52.44;41.74;64.21;;
49215;Laerm;45943;53.148;8.204;2024-03-06T08:55:08;55.13;42.76;67.88;;
49215;Laerm;45943;53.148;8.204;2024-03-06T08:57:35;55.00;41.90;69.79;;
49215;Laerm;45943;53.148;8.204;2024-03-06T09:00:03;55.51;42.13;66.29;;
49215;Laerm;45943;53.148;8.204;2024-03-06T09:02:29;55.01;42.56;67.84;;
49215;Laerm;45943;53.148;8.204;2024-03-06T09:04:55;54.11;41.58;65.32;;
49215;Laerm;45943;53.148;8.204;2024-03-06T09:07:21;54.01;41.49;71.35;;
49215;Laerm;45943;53.148;8.204;2024-03-06T09:09:50;52.38;41.03;66.99;;
49215;Laerm;45943;53.148;8.204;2024-03-06T09:12:17;56.96;42.13;70.24;;
49215;Laerm;45943;53.148;8.204;2024-03-06T09:14:44;52.05;41.22;64.63;;
49215;Laerm;45943;53.148;8.204;2024-03-06T09:17:11;52.60;41.40;63.89;;
49215;Laerm;45943;53.148;8.204;2024-03-06T09:19:41;52.01;41.13;63.98;;
49215;Laerm;45943;53.148;8.204;2024-03-06T09:22:07;55.33;40.93;69.27;;
49215;Laerm;45943;53.148;8.204;2024-03-06T09:24:33;54.99;41.40;68.90;;
49215;Laerm;45943;53.148;8.204;2024-03-06T09:27:01;50.58;40.63;70.36;;
49215;Laerm;45943;53.148;8.204;2024-03-06T09:29:27;51.44;40.93;70.35;;
49215;Laerm;45943;53.148;8.204;2024-03-06T09:31:53;50.98;40.52;65.92;;
49215;Laerm;45943;53.148;8.204;2024-03-06T09:34:19;50.54;40.18;65.13;;
49215;Laerm;45943;53.148;8.204;2024-03-06T09:36:48;51.70;40.83;64.48;;
49215;Laerm;45943;53.148;8.204;2024-03-06T09:39:16;55.83;40.87;72.13;;
49215;Laerm;45943;53.148;8.204;2024-03-06T09:41:44;56.64;41.22;72.28;;
49215;Laerm;45943;53.148;8.204;2024-03-06T09:44:10;55.59;40.93;74.48;;
49215;Laerm;45943;53.148;8.204;2024-03-06T09:46:36;52.04;41.03;67.88;;
49215;Laerm;45943;53.148;8.204;2024-03-06T09:49:03;55.80;41.49;67.70;;
49215;Laerm;45943;53.148;8.204;2024-03-06T09:51:29;59.38;40.93;77.32;;
49215;Laerm;45943;53.148;8.204;2024-03-06T09:53:56;51.67;40.52;68.42;;
49215;Laerm;45943;53.148;8.204;2024-03-06T09:56:22;52.03;39.81;70.42;;
49215;Laerm;45943;53.148;8.204;2024-03-06T09:58:48;57.32;40.73;69.76;;
49215;Laerm;45943;53.148;8.204;2024-03-06T10:01:14;54.64;40.06;68.23;;
49215;Laerm;45943;53.148;8.204;2024-03-06T10:03:40;54.08;39.41;71.17;;
49215;Laerm;45943;53.148;8.204;2024-03-06T10:06:07;51.63;40.41;65.39;;
49215;Laerm;45943;53.148;8.204;2024-03-06T10:08:34;50.37;42.89;63.67;;
49215;Laerm;45943;53.148;8.204;2024-03-06T10:11:00;56.25;44.46;76.65;;
49215;Laerm;45943;53.148;8.204;2024-03-06T10:13:26;62.90;43.48;91.35;;
49215;Laerm;45943;53.148;8.204;2024-03-06T10:15:59;55.37;41.74;76.32;;
49215;Laerm;45943;53.148;8.204;2024-03-06T10:18:30;53.35;40.73;73.28;;
49215;Laerm;45943;53.148;8.204;2024-03-06T10:20:56;55.21;41.82;68.04;;
49215;Laerm;45943;53.148;8.204;2024-03-06T10:23:23;53.52;41.13;66.35;;
49215;Laerm;45943;53.148;8.204;2024-03-06T10:25:50;54.54;40.52;67.78;;
49215;Laerm;45943;53.148;8.204;2024-03-06T10:28:17;50.77;40.73;63.79;;
49215;Laerm;45943;53.148;8.204;2024-03-06T10:30:43;52.75;42.63;66.24;;
49215;Laerm;45943;53.148;8.204;2024-03-06T10:33:11;58.83;43.07;78.23;;
49215;Laerm;45943;53.148;8.204;2024-03-06T10:35:40;54.14;41.49;66.93;;
49215;Laerm;45943;53.148;8.204;2024-03-06T10:38:07;55.12;42.76;71.60;;
49215;Laerm;45943;53.148;8.204;2024-03-06T10:40:35;54.42;41.49;66.16;;
49215;Laerm;45943;53.148;8.204;2024-03-06T10:43:03;54.68;41.66;68.86;;
49215;Laerm;45943;53.148;8.204;2024-03-06T10:48:00;53.00;39.27;66.81;;
49215;Laerm;45943;53.148;8.204;2024-03-06T10:50:28;58.61;39.81;73.99;;
49215;Laerm;45943;53.148;8.204;2024-03-06T10:52:55;54.45;40.30;70.56;;
49215;Laerm;45943;53.148;8.204;2024-03-06T10:55:22;54.26;42.06;69.72;;
49215;Laerm;45943;53.148;8.204;2024-03-06T10:57:52;55.94;41.22;67.29;;
49215;Laerm;45943;53.148;8.204;2024-03-06T11:00:18;52.82;40.52;68.81;;
49215;Laerm;45943;53.148;8.204;2024-03-06T11:02:48;59.21;41.40;71.01;;
49215;Laerm;45943;53.148;8.204;2024-03-06T11:05:17;58.08;43.89;72.55;;
49215;Laerm;45943;53.148;8.204;2024-03-06T11:07:43;56.58;39.27;73.49;;
49215;Laerm;45943;53.148;8.204;2024-03-06T11:10:09;57.14;40.63;73.36;;
49215;Laerm;45943;53.148;8.204;2024-03-06T11:12:42;54.60;39.94;74.79;;
49215;Laerm;45943;53.148;8.204;2024-03-06T11:15:15;54.20;39.41;66.78;;
49215;Laerm;45943;53.148;8.204;2024-03-06T11:17:42;57.58;40.93;74.35;;
49215;Laerm;45943;53.148;8.204;2024-03-06T11:28:22;53.13;39.12;65.83;;
49215;Laerm;45943;53.148;8.204;2024-03-06T11:33:36;51.67;38.78;67.02;;
49215;Laerm;45943;53.148;8.204;2024-03-06T11:36:20;52.03;41.22;68.15;;
49215;Laerm;45943;53.148;8.204;2024-03-06T11:41:24;54.30;41.22;67.40;;
49215;Laerm;45943;53.148;8.204;2024-03-06T11:43:51;56.39;40.83;70.29;;
49215;Laerm;45943;53.148;8.204;2024-03-06T11:46:19;55.33;40.73;69.28;;
49215;Laerm;45943;53.148;8.204;2024-03-06T11:48:53;52.35;38.65;66.34;;
49215;Laerm;45943;53.148;8.204;2024-03-06T11:51:21;54.44;39.27;72.03;;
49215;Laerm;45943;53.148;8.204;2024-03-06T11:53:49;55.27;41.31;71.48;;
49215;Laerm;45943;53.148;8.204;2024-03-06T11:56:17;50.75;39.94;63.90;;
49215;Laerm;45943;53.148;8.204;2024-03-06T11:58:43;53.96;40.06;74.51;;
49215;Laerm;45943;53.148;8.204;2024-03-06T12:01:09;54.66;42.89;66.51;;
49215;Laerm;45943;53.148;8.204;2024-03-06T12:03:35;55.58;40.63;70.63;;
49215;Laerm;45943;53.148;8.204;2024-03-06T12:06:02;54.48;40.30;69.92;;
49215;Laerm;45943;53.148;8.204;2024-03-06T12:08:28;55.47;39.55;74.89;;
49215;Laerm;45943;53.148;8.204;2024-03-06T12:10:54;52.57;39.41;65.42;;
49215;Laerm;45943;53.148;8.204;2024-03-06T12:13:24;54.07;40.73;69.34;;
49215;Laerm;45943;53.148;8.204;2024-03-06T12:15:50;55.10;40.78;68.25;;
49215;Laerm;45943;53.148;8.204;2024-03-06T12:18:17;53.90;40.41;65.31;;
49215;Laerm;45943;53.148;8.204;2024-03-06T12:20:44;54.33;39.68;67.24;;
49215;Laerm;45943;53.148;8.204;2024-03-06T12:23:22;55.60;40.18;68.94;;
49215;Laerm;45943;53.148;8.204;2024-03-06T12:26:04;55.87;41.49;66.77;;
49215;Laerm;45943;53.148;8.204;2024-03-06T12:28:31;49.35;39.55;62.98;;
49215;Laerm;45943;53.148;8.204;2024-03-06T12:30:57;55.13;42.06;68.69;;
49215;Laerm;45943;53.148;8.204;2024-03-06T12:33:26;56.19;41.31;68.64;;
49215;Laerm;45943;53.148;8.204;2024-03-06T12:36:06;50.55;40.41;66.34;;
49215;Laerm;45943;53.148;8.204;2024-03-06T12:38:37;54.81;40.06;70.53;;
49215;Laerm;45943;53.148;8.204;2024-03-06T12:41:03;52.63;39.95;67.15;;
49215;Laerm;45943;53.148;8.204;2024-03-06T12:43:30;53.58;41.98;67.89;;
49215;Laerm;45943;53.148;8.204;2024-03-06T12:45:56;51.18;40.63;69.99;;
49215;Laerm;45943;53.148;8.204;2024-03-06T12:48:23;55.92;41.58;68.09;;
49215;Laerm;45943;53.148;8.204;2024-03-06T12:50:51;51.43;39.68;66.94;;
49215;Laerm;45943;53.148;8.204;2024-03-06T12:53:18;52.17;40.30;64.93;;
49215;Laerm;45943;53.148;8.204;2024-03-06T12:55:44;52.07;40.52;73.95;;
49215;Laerm;45943;53.148;8.204;2024-03-06T12:58:12;51.08;39.81;67.31;;
49215;Laerm;45943;53.148;8.204;2024-03-06T13:00:38;56.19;40.83;68.82;;
49215;Laerm;45943;53.148;8.204;2024-03-06T13:03:05;51.66;39.41;65.11;;
49215;Laerm;45943;53.148;8.204;2024-03-06T13:05:31;51.54;38.65;67.77;;
49215;Laerm;45943;53.148;8.204;2024-03-06T13:07:58;48.80;39.55;61.33;;
49215;Laerm;45943;53.148;8.204;2024-03-06T13:10:25;52.53;39.94;64.31;;
49215;Laerm;45943;53.148;8.204;2024-03-06T13:12:51;54.78;39.27;66.88;;
49215;Laerm;45943;53.148;8.204;2024-03-06T13:15:18;55.50;39.81;69.01;;
49215;Laerm;45943;53.148;8.204;2024-03-06T13:17:44;55.28;39.81;67.58;;
49215;Laerm;45943;53.148;8.204;2024-03-06T13:20:10;54.09;40.83;67.36;;
49215;Laerm;45943;53.148;8.204;2024-03-06T13:22:38;51.63;39.12;64.40;;
49215;Laerm;45943;53.148;8.204;2024-03-06T13:25:04;52.79;41.03;63.92;;
49215;Laerm;45943;53.148;8.204;2024-03-06T13:27:30;50.68;39.55;65.45;;
49215;Laerm;45943;53.148;8.204;2024-03-06T13:29:56;52.84;38.81;65.75;;
49215;Laerm;45943;53.148;8.204;2024-03-06T13:32:22;53.06;38.30;66.25;;
49215;Laerm;45943;53.148;8.204;2024-03-06T13:34:48;55.35;39.81;69.12;;
49215;Laerm;45943;53.148;8.204;2024-03-06T13:37:15;53.30;40.93;65.90;;
49215;Laerm;45943;53.148;8.204;2024-03-06T13:39:41;54.84;40.83;67.19;;
49215;Laerm;45943;53.148;8.204;2024-03-06T13:42:08;47.41;39.12;61.09;;
49215;Laerm;45943;53.148;8.204;2024-03-06T13:44:37;51.79;40.30;64.71;;
49215;Laerm;45943;53.148;8.204;2024-03-06T13:47:03;54.42;40.06;66.34;;
49215;Laerm;45943;53.148;8.204;2024-03-06T13:49:40;53.65;39.41;68.49;;
49215;Laerm;45943;53.148;8.204;2024-03-06T13:52:08;53.35;40.30;72.31;;
49215;Laerm;45943;53.148;8.204;2024-03-06T13:54:39;54.53;40.41;71.70;;
49215;Laerm;45943;53.148;8.204;2024-03-06T13:57:07;53.03;42.82;67.41;;
49215;Laerm;45943;53.148;8.204;2024-03-06T13:59:33;53.27;40.73;67.34;;